sensor_id;sensor_type;location;lat;lon;timestamp;P1;durP1;ratioP1;P2;durP2;ratioP2
10416;SDS011;62605;49.432;8.680;2024-01-07T00:02:07;7.40;;;4.30;;
10416;SDS011;62605;49.432;8.680;2024-01-07T00:04:35;6.13;;;3.43;;
10416;SDS011;62605;49.432;8.680;2024-01-07T00:07:03;6.27;;;3.67;;
10416;SDS011;62605;49.432;8.680;2024-01-07T00:09:31;11.03;;;4.47;;
10416;SDS011;62605;49.432;8.680;2024-01-07T00:11:58;6.13;;;3.63;;
10416;SDS011;62605;49.432;8.680;2024-01-07T00:14:25;12.00;;;4.40;;
10416;SDS011;62605;49.432;8.680;2024-01-07T00:16:56;9.30;;;4.10;;
10416;SDS011;62605;49.432;8.680;2024-01-07T00:19:24;6.33;;;3.70;;
10416;SDS011;62605;49.432;8.680;2024-01-07T00:21:52;5.30;;;3.40;;
10416;SDS011;62605;49.432;8.680;2024-01-07T00:24:20;8.93;;;4.27;;
10416;SDS011;62605;49.432;8.680;2024-01-07T00:26:50;6.33;;;3.83;;
10416;SDS011;62605;49.432;8.680;2024-01-07T00:29:17;9.70;;;3.80;;
10416;SDS011;62605;49.432;8.680;2024-01-07T00:31:44;7.57;;;4.10;;
10416;SDS011;62605;49.432;8.680;2024-01-07T00:34:11;9.90;;;4.50;;
10416;SDS011;62605;49.432;8.680;2024-01-07T00:36:40;4.97;;;2.93;;
10416;SDS011;62605;49.432;8.680;2024-01-07T00:39:14;9.57;;;4.50;;
10416;SDS011;62605;49.432;8.680;2024-01-07T00:41:41;5.53;;;3.03;;
10416;SDS011;62605;49.432;8.680;2024-01-07T00:44:09;4.80;;;3.70;;
10416;SDS011;62605;49.432;8.680;2024-01-07T00:46:36;6.43;;;3.87;;
10416;SDS011;62605;49.432;8.680;2024-01-07T00:49:03;7.73;;;3.73;;
10416;SDS011;62605;49.432;8.680;2024-01-07T00:51:30;6.33;;;3.67;;
10416;SDS011;62605;49.432;8.680;2024-01-07T00:53:59;9.87;;;4.10;;
10416;SDS011;62605;49.432;8.680;2024-01-07T00:56:26;6.60;;;3.37;;
10416;SDS011;62605;49.432;8.680;2024-01-07T00:58:54;6.23;;;3.73;;
10416;SDS011;62605;49.432;8.680;2024-01-07T01:01:21;7.53;;;3.97;;
10416;SDS011;62605;49.432;8.680;2024-01-07T01:03:49;8.50;;;3.80;;
10416;SDS011;62605;49.432;8.680;2024-01-07T01:06:16;5.93;;;3.57;;
10416;SDS011;62605;49.432;8.680;2024-01-07T01:08:43;5.30;;;2.97;;
10416;SDS011;62605;49.432;8.680;2024-01-07T01:11:12;5.93;;;3.63;;
10416;SDS011;62605;49.432;8.680;2024-01-07T01:13:39;7.47;;;3.43;;
10416;SDS011;62605;49.432;8.680;2024-01-07T01:16:06;6.57;;;3.10;;
10416;SDS011;62605;49.432;8.680;2024-01-07T01:18:34;13.83;;;5.00;;
10416;SDS011;62605;49.432;8.680;2024-01-07T01:21:02;6.30;;;3.13;;
10416;SDS011;62605;49.432;8.680;2024-01-07T01:23:29;6.03;;;3.00;;
10416;SDS011;62605;49.432;8.680;2024-01-07T01:25:57;5.03;;;2.37;;
10416;SDS011;62605;49.432;8.680;2024-01-07T01:28:25;3.80;;;2.50;;
10416;SDS011;62605;49.432;8.680;2024-01-07T01:30:53;31.00;;;10.87;;
10416;SDS011;62605;49.432;8.680;2024-01-07T01:33:20;6.67;;;3.10;;
10416;SDS011;62605;49.432;8.680;2024-01-07T01:35:48;5.70;;;2.77;;
10416;SDS011;62605;49.432;8.680;2024-01-07T01:38:16;8.60;;;3.63;;
10416;SDS011;62605;49.432;8.680;2024-01-07T01:40:44;5.10;;;3.23;;
10416;SDS011;62605;49.432;8.680;2024-01-07T01:43:24;7.00;;;2.43;;
10416;SDS011;62605;49.432;8.680;2024-01-07T01:45:54;5.07;;;2.60;;
10416;SDS011;62605;49.432;8.680;2024-01-07T01:48:22;5.23;;;2.27;;
10416;SDS011;62605;49.432;8.680;2024-01-07T01:50:51;3.13;;;2.17;;
10416;SDS011;62605;49.432;8.680;2024-01-07T01:53:23;4.47;;;2.37;;
10416;SDS011;62605;49.432;8.680;2024-01-07T01:55:51;4.13;;;2.70;;
10416;SDS011;62605;49.432;8.680;2024-01-07T01:58:20;2.83;;;1.83;;
10416;SDS011;62605;49.432;8.680;2024-01-07T02:00:50;5.47;;;2.00;;
10416;SDS011;62605;49.432;8.680;2024-01-07T02:03:26;1.40;;;1.30;;
10416;SDS011;62605;49.432;8.680;2024-01-07T02:05:59;3.07;;;2.03;;
10416;SDS011;62605;49.432;8.680;2024-01-07T02:08:26;4.07;;;2.00;;
10416;SDS011;62605;49.432;8.680;2024-01-07T02:10:54;2.23;;;1.60;;
10416;SDS011;62605;49.432;8.680;2024-01-07T02:13:21;4.43;;;2.00;;
10416;SDS011;62605;49.432;8.680;2024-01-07T02:15:51;3.13;;;1.87;;
10416;SDS011;62605;49.432;8.680;2024-01-07T02:18:18;2.70;;;1.80;;
10416;SDS011;62605;49.432;8.680;2024-01-07T02:20:46;2.40;;;1.67;;
10416;SDS011;62605;49.432;8.680;2024-01-07T02:23:13;1.87;;;1.70;;
10416;SDS011;62605;49.432;8.680;2024-01-07T02:25:43;2.40;;;1.40;;
10416;SDS011;62605;49.432;8.680;2024-01-07T02:28:11;3.67;;;1.87;;
10416;SDS011;62605;49.432;8.680;2024-01-07T02:30:38;1.40;;;1.30;;
10416;SDS011;62605;49.432;8.680;2024-01-07T02:33:05;2.47;;;1.67;;
10416;SDS011;62605;49.432;8.680;2024-01-07T02:35:33;2.77;;;1.87;;
10416;SDS011;62605;49.432;8.680;2024-01-07T02:38:03;2.77;;;2.00;;
10416;SDS011;62605;49.432;8.680;2024-01-07T02:40:30;6.83;;;2.07;;
10416;SDS011;62605;49.432;8.680;2024-01-07T02:42:59;2.13;;;1.80;;
10416;SDS011;62605;49.432;8.680;2024-01-07T02:45:26;2.07;;;1.47;;
10416;SDS011;62605;49.432;8.680;2024-01-07T02:47:54;5.07;;;1.70;;
10416;SDS011;62605;49.432;8.680;2024-01-07T02:50:22;2.90;;;1.77;;
10416;SDS011;62605;49.432;8.680;2024-01-07T02:52:49;2.17;;;1.83;;
10416;SDS011;62605;49.432;8.680;2024-01-07T02:55:16;4.13;;;2.13;;
10416;SDS011;62605;49.432;8.680;2024-01-07T02:57:43;5.27;;;2.73;;
10416;SDS011;62605;49.432;8.680;2024-01-07T03:00:12;3.00;;;2.00;;
10416;SDS011;62605;49.432;8.680;2024-01-07T03:02:39;4.17;;;2.23;;
10416;SDS011;62605;49.432;8.680;2024-01-07T03:05:07;2.53;;;1.83;;
10416;SDS011;62605;49.432;8.680;2024-01-07T03:07:35;1.93;;;1.53;;
10416;SDS011;62605;49.432;8.680;2024-01-07T03:10:04;1.93;;;1.73;;
10416;SDS011;62605;49.432;8.680;2024-01-07T03:12:32;2.53;;;2.03;;
10416;SDS011;62605;49.432;8.680;2024-01-07T03:14:59;3.13;;;1.87;;
10416;SDS011;62605;49.432;8.680;2024-01-07T03:17:28;4.00;;;2.03;;
10416;SDS011;62605;49.432;8.680;2024-01-07T03:19:55;3.23;;;1.87;;
10416;SDS011;62605;49.432;8.680;2024-01-07T03:22:23;2.67;;;1.77;;
10416;SDS011;62605;49.432;8.680;2024-01-07T03:24:50;3.53;;;2.03;;
10416;SDS011;62605;49.432;8.680;2024-01-07T03:27:17;3.27;;;1.73;;
10416;SDS011;62605;49.432;8.680;2024-01-07T03:29:44;2.80;;;1.77;;
10416;SDS011;62605;49.432;8.680;2024-01-07T03:32:11;1.67;;;1.33;;
10416;SDS011;62605;49.432;8.680;2024-01-07T03:34:40;3.30;;;1.67;;
10416;SDS011;62605;49.432;8.680;2024-01-07T03:37:07;3.03;;;2.00;;
10416;SDS011;62605;49.432;8.680;2024-01-07T03:39:35;3.83;;;2.47;;
10416;SDS011;62605;49.432;8.680;2024-01-07T03:42:02;3.43;;;1.73;;
10416;SDS011;62605;49.432;8.680;2024-01-07T03:44:31;3.40;;;2.10;;
10416;SDS011;62605;49.432;8.680;2024-01-07T03:46:58;4.37;;;2.97;;
10416;SDS011;62605;49.432;8.680;2024-01-07T03:49:25;4.73;;;2.93;;
10416;SDS011;62605;49.432;8.680;2024-01-07T03:51:54;5.27;;;2.73;;
10416;SDS011;62605;49.432;8.680;2024-01-07T03:54:21;5.87;;;3.03;;
10416;SDS011;62605;49.432;8.680;2024-01-07T03:56:48;5.17;;;2.47;;
10416;SDS011;62605;49.432;8.680;2024-01-07T03:59:15;4.60;;;2.27;;
10416;SDS011;62605;49.432;8.680;2024-01-07T04:01:43;3.37;;;2.60;;
10416;SDS011;62605;49.432;8.680;2024-01-07T04:04:11;5.23;;;2.37;;
10416;SDS011;62605;49.432;8.680;2024-01-07T04:06:40;4.23;;;2.50;;
10416;SDS011;62605;49.432;8.680;2024-01-07T04:09:08;4.80;;;3.10;;
10416;SDS011;62605;49.432;8.680;2024-01-07T04:11:39;8.20;;;3.60;;
10416;SDS011;62605;49.432;8.680;2024-01-07T04:14:07;2.37;;;1.83;;
10416;SDS011;62605;49.432;8.680;2024-01-07T04:16:34;2.97;;;2.20;;
10416;SDS011;62605;49.432;8.680;2024-01-07T04:19:01;5.67;;;3.10;;
10416;SDS011;62605;49.432;8.680;2024-01-07T04:21:28;4.53;;;2.23;;
10416;SDS011;62605;49.432;8.680;2024-01-07T04:23:55;4.47;;;2.77;;
10416;SDS011;62605;49.432;8.680;2024-01-07T04:26:24;3.40;;;2.30;;
10416;SDS011;62605;49.432;8.680;2024-01-07T04:28:52;4.80;;;2.57;;
10416;SDS011;62605;49.432;8.680;2024-01-07T04:31:19;9.07;;;3.07;;
10416;SDS011;62605;49.432;8.680;2024-01-07T04:33:46;5.23;;;2.70;;
10416;SDS011;62605;49.432;8.680;2024-01-07T04:36:13;4.57;;;2.23;;
10416;SDS011;62605;49.432;8.680;2024-01-07T04:38:40;5.03;;;2.50;;
10416;SDS011;62605;49.432;8.680;2024-01-07T04:41:07;3.50;;;2.13;;
10416;SDS011;62605;49.432;8.680;2024-01-07T04:43:36;4.33;;;3.00;;
10416;SDS011;62605;49.432;8.680;2024-01-07T04:46:03;4.87;;;2.53;;
10416;SDS011;62605;49.432;8.680;2024-01-07T04:48:31;3.43;;;2.00;;
10416;SDS011;62605;49.432;8.680;2024-01-07T04:50:58;4.30;;;2.67;;
10416;SDS011;62605;49.432;8.680;2024-01-07T04:53:25;4.27;;;2.70;;
10416;SDS011;62605;49.432;8.680;2024-01-07T04:55:52;2.90;;;2.20;;
10416;SDS011;62605;49.432;8.680;2024-01-07T04:58:20;3.20;;;2.53;;
10416;SDS011;62605;49.432;8.680;2024-01-07T05:00:48;5.50;;;2.67;;
10416;SDS011;62605;49.432;8.680;2024-01-07T05:03:15;3.20;;;2.33;;
10416;SDS011;62605;49.432;8.680;2024-01-07T05:05:42;5.90;;;2.77;;
10416;SDS011;62605;49.432;8.680;2024-01-07T05:08:10;4.90;;;2.73;;
10416;SDS011;62605;49.432;8.680;2024-01-07T05:10:37;3.07;;;2.13;;
10416;SDS011;62605;49.432;8.680;2024-01-07T05:13:04;3.37;;;2.00;;
10416;SDS011;62605;49.432;8.680;2024-01-07T05:15:32;4.10;;;2.57;;
10416;SDS011;62605;49.432;8.680;2024-01-07T05:18:00;5.27;;;2.63;;
10416;SDS011;62605;49.432;8.680;2024-01-07T05:20:28;5.60;;;2.57;;
10416;SDS011;62605;49.432;8.680;2024-01-07T05:22:55;3.30;;;2.33;;
10416;SDS011;62605;49.432;8.680;2024-01-07T05:25:22;3.27;;;2.37;;
10416;SDS011;62605;49.432;8.680;2024-01-07T05:27:49;3.40;;;2.30;;
10416;SDS011;62605;49.432;8.680;2024-01-07T05:30:16;2.67;;;1.57;;
10416;SDS011;62605;49.432;8.680;2024-01-07T05:32:43;2.57;;;1.90;;
10416;SDS011;62605;49.432;8.680;2024-01-07T05:35:12;4.17;;;2.10;;
10416;SDS011;62605;49.432;8.680;2024-01-07T05:37:40;5.00;;;2.07;;
10416;SDS011;62605;49.432;8.680;2024-01-07T05:40:07;2.37;;;2.03;;
10416;SDS011;62605;49.432;8.680;2024-01-07T05:42:35;2.70;;;2.20;;
10416;SDS011;62605;49.432;8.680;2024-01-07T05:45:03;4.90;;;2.00;;
10416;SDS011;62605;49.432;8.680;2024-01-07T05:47:30;2.80;;;2.27;;
10416;SDS011;62605;49.432;8.680;2024-01-07T05:49:58;2.63;;;1.70;;
10416;SDS011;62605;49.432;8.680;2024-01-07T05:52:26;3.13;;;2.30;;
10416;SDS011;62605;49.432;8.680;2024-01-07T05:54:54;3.87;;;2.23;;
10416;SDS011;62605;49.432;8.680;2024-01-07T05:57:22;2.33;;;1.87;;
10416;SDS011;62605;49.432;8.680;2024-01-07T05:59:49;2.87;;;1.83;;
10416;SDS011;62605;49.432;8.680;2024-01-07T06:02:16;2.90;;;1.97;;
10416;SDS011;62605;49.432;8.680;2024-01-07T06:04:44;3.07;;;2.27;;
10416;SDS011;62605;49.432;8.680;2024-01-07T06:07:11;5.57;;;2.60;;
10416;SDS011;62605;49.432;8.680;2024-01-07T06:09:40;2.60;;;2.30;;
10416;SDS011;62605;49.432;8.680;2024-01-07T06:12:07;2.80;;;2.03;;
10416;SDS011;62605;49.432;8.680;2024-01-07T06:14:34;3.57;;;2.00;;
10416;SDS011;62605;49.432;8.680;2024-01-07T06:17:01;3.90;;;1.97;;
10416;SDS011;62605;49.432;8.680;2024-01-07T06:19:29;3.37;;;2.30;;
10416;SDS011;62605;49.432;8.680;2024-01-07T06:21:57;3.67;;;2.07;;
10416;SDS011;62605;49.432;8.680;2024-01-07T06:24:24;4.73;;;2.70;;
10416;SDS011;62605;49.432;8.680;2024-01-07T06:26:52;4.00;;;1.93;;
10416;SDS011;62605;49.432;8.680;2024-01-07T06:29:20;4.17;;;2.20;;
10416;SDS011;62605;49.432;8.680;2024-01-07T06:31:47;3.97;;;2.23;;
10416;SDS011;62605;49.432;8.680;2024-01-07T06:34:14;3.27;;;2.27;;
10416;SDS011;62605;49.432;8.680;2024-01-07T06:36:41;3.73;;;2.00;;
10416;SDS011;62605;49.432;8.680;2024-01-07T06:39:09;4.17;;;2.17;;
10416;SDS011;62605;49.432;8.680;2024-01-07T06:41:37;4.37;;;2.47;;
10416;SDS011;62605;49.432;8.680;2024-01-07T06:44:06;4.87;;;2.03;;
10416;SDS011;62605;49.432;8.680;2024-01-07T06:46:33;4.27;;;2.13;;
10416;SDS011;62605;49.432;8.680;2024-01-07T06:49:00;4.07;;;2.47;;
10416;SDS011;62605;49.432;8.680;2024-01-07T06:51:28;7.13;;;3.30;;
10416;SDS011;62605;49.432;8.680;2024-01-07T06:53:55;4.67;;;2.60;;
10416;SDS011;62605;49.432;8.680;2024-01-07T06:56:22;5.10;;;2.73;;
10416;SDS011;62605;49.432;8.680;2024-01-07T06:58:50;4.07;;;2.20;;
10416;SDS011;62605;49.432;8.680;2024-01-07T07:01:19;4.13;;;3.13;;
10416;SDS011;62605;49.432;8.680;2024-01-07T07:03:48;4.93;;;2.87;;
10416;SDS011;62605;49.432;8.680;2024-01-07T07:06:15;5.80;;;3.10;;
10416;SDS011;62605;49.432;8.680;2024-01-07T07:08:42;5.53;;;2.67;;
10416;SDS011;62605;49.432;8.680;2024-01-07T07:11:10;5.23;;;3.00;;
10416;SDS011;62605;49.432;8.680;2024-01-07T07:13:37;6.63;;;3.43;;
10416;SDS011;62605;49.432;8.680;2024-01-07T07:16:05;7.57;;;3.40;;
10416;SDS011;62605;49.432;8.680;2024-01-07T07:18:34;3.77;;;2.43;;
10416;SDS011;62605;49.432;8.680;2024-01-07T07:21:01;8.50;;;3.30;;
10416;SDS011;62605;49.432;8.680;2024-01-07T07:26:18;5.50;;;3.80;;
10416;SDS011;62605;49.432;8.680;2024-01-07T07:28:48;5.93;;;3.53;;
10416;SDS011;62605;49.432;8.680;2024-01-07T07:31:16;7.53;;;3.57;;
10416;SDS011;62605;49.432;8.680;2024-01-07T07:33:44;6.90;;;3.00;;
10416;SDS011;62605;49.432;8.680;2024-01-07T07:36:12;6.47;;;3.20;;
10416;SDS011;62605;49.432;8.680;2024-01-07T07:38:39;5.87;;;3.73;;
10416;SDS011;62605;49.432;8.680;2024-01-07T07:41:07;8.93;;;3.00;;
10416;SDS011;62605;49.432;8.680;2024-01-07T07:43:34;6.87;;;3.70;;
10416;SDS011;62605;49.432;8.680;2024-01-07T07:46:02;7.37;;;4.17;;
10416;SDS011;62605;49.432;8.680;2024-01-07T07:48:30;6.20;;;3.53;;
10416;SDS011;62605;49.432;8.680;2024-01-07T07:50:58;9.53;;;3.90;;
10416;SDS011;62605;49.432;8.680;2024-01-07T07:53:25;9.60;;;5.33;;
10416;SDS011;62605;49.432;8.680;2024-01-07T07:55:53;10.60;;;4.27;;
10416;SDS011;62605;49.432;8.680;2024-01-07T07:58:20;7.27;;;3.80;;
10416;SDS011;62605;49.432;8.680;2024-01-07T08:00:47;8.10;;;4.07;;
10416;SDS011;62605;49.432;8.680;2024-01-07T08:03:15;6.17;;;3.80;;
10416;SDS011;62605;49.432;8.680;2024-01-07T08:05:42;7.50;;;3.67;;
10416;SDS011;62605;49.432;8.680;2024-01-07T08:08:10;6.97;;;3.47;;
10416;SDS011;62605;49.432;8.680;2024-01-07T08:10:38;6.10;;;3.80;;
10416;SDS011;62605;49.432;8.680;2024-01-07T08:13:05;7.83;;;4.00;;
10416;SDS011;62605;49.432;8.680;2024-01-07T08:15:34;6.67;;;4.23;;
10416;SDS011;62605;49.432;8.680;2024-01-07T08:18:03;6.70;;;4.93;;
10416;SDS011;62605;49.432;8.680;2024-01-07T08:20:30;6.63;;;3.83;;
10416;SDS011;62605;49.432;8.680;2024-01-07T08:22:57;7.13;;;4.77;;
10416;SDS011;62605;49.432;8.680;2024-01-07T08:25:26;10.13;;;4.93;;
10416;SDS011;62605;49.432;8.680;2024-01-07T08:27:54;7.20;;;4.40;;
10416;SDS011;62605;49.432;8.680;2024-01-07T08:30:21;10.40;;;4.90;;
10416;SDS011;62605;49.432;8.680;2024-01-07T08:32:48;7.77;;;4.33;;
10416;SDS011;62605;49.432;8.680;2024-01-07T08:35:16;7.87;;;5.07;;
10416;SDS011;62605;49.432;8.680;2024-01-07T08:37:43;6.40;;;4.00;;
10416;SDS011;62605;49.432;8.680;2024-01-07T08:40:12;9.30;;;4.37;;
10416;SDS011;62605;49.432;8.680;2024-01-07T08:42:40;7.10;;;5.03;;
10416;SDS011;62605;49.432;8.680;2024-01-07T08:45:08;8.30;;;4.80;;
10416;SDS011;62605;49.432;8.680;2024-01-07T08:47:36;9.97;;;4.73;;
10416;SDS011;62605;49.432;8.680;2024-01-07T08:50:06;9.90;;;4.20;;
10416;SDS011;62605;49.432;8.680;2024-01-07T08:52:34;7.10;;;3.93;;
10416;SDS011;62605;49.432;8.680;2024-01-07T08:55:02;10.37;;;4.30;;
10416;SDS011;62605;49.432;8.680;2024-01-07T08:57:31;8.57;;;4.60;;
10416;SDS011;62605;49.432;8.680;2024-01-07T08:59:59;7.03;;;4.03;;
10416;SDS011;62605;49.432;8.680;2024-01-07T09:02:27;6.47;;;3.97;;
10416;SDS011;62605;49.432;8.680;2024-01-07T09:04:55;7.27;;;4.10;;
10416;SDS011;62605;49.432;8.680;2024-01-07T09:07:23;5.03;;;3.50;;
10416;SDS011;62605;49.432;8.680;2024-01-07T09:09:50;5.87;;;3.70;;
10416;SDS011;62605;49.432;8.680;2024-01-07T09:12:20;6.20;;;3.53;;
10416;SDS011;62605;49.432;8.680;2024-01-07T09:14:47;6.00;;;2.50;;
10416;SDS011;62605;49.432;8.680;2024-01-07T09:17:16;5.07;;;3.17;;
10416;SDS011;62605;49.432;8.680;2024-01-07T09:19:44;4.40;;;3.10;;
10416;SDS011;62605;49.432;8.680;2024-01-07T09:22:11;4.50;;;3.30;;
10416;SDS011;62605;49.432;8.680;2024-01-07T09:24:38;5.77;;;2.47;;
10416;SDS011;62605;49.432;8.680;2024-01-07T09:27:05;3.77;;;2.03;;
10416;SDS011;62605;49.432;8.680;2024-01-07T09:29:33;3.67;;;2.10;;
10416;SDS011;62605;49.432;8.680;2024-01-07T09:32:00;2.33;;;1.40;;
10416;SDS011;62605;49.432;8.680;2024-01-07T09:34:29;1.83;;;1.00;;
10416;SDS011;62605;49.432;8.680;2024-01-07T09:36:56;2.17;;;1.20;;
10416;SDS011;62605;49.432;8.680;2024-01-07T09:39:24;1.47;;;1.33;;
10416;SDS011;62605;49.432;8.680;2024-01-07T09:41:53;1.30;;;1.20;;
10416;SDS011;62605;49.432;8.680;2024-01-07T09:44:21;0.73;;;0.73;;
10416;SDS011;62605;49.432;8.680;2024-01-07T09:46:48;0.90;;;0.90;;
10416;SDS011;62605;49.432;8.680;2024-01-07T09:49:17;0.93;;;0.93;;
10416;SDS011;62605;49.432;8.680;2024-01-07T09:51:46;1.40;;;1.30;;
10416;SDS011;62605;49.432;8.680;2024-01-07T09:54:16;2.00;;;1.03;;
10416;SDS011;62605;49.432;8.680;2024-01-07T09:56:47;3.50;;;1.10;;
10416;SDS011;62605;49.432;8.680;2024-01-07T09:59:20;0.90;;;0.90;;
10416;SDS011;62605;49.432;8.680;2024-01-07T10:01:49;1.60;;;1.00;;
10416;SDS011;62605;49.432;8.680;2024-01-07T10:04:18;1.33;;;1.23;;
10416;SDS011;62605;49.432;8.680;2024-01-07T10:06:47;2.47;;;1.10;;
10416;SDS011;62605;49.432;8.680;2024-01-07T10:09:15;1.83;;;1.20;;
10416;SDS011;62605;49.432;8.680;2024-01-07T10:11:44;1.10;;;1.10;;
10416;SDS011;62605;49.432;8.680;2024-01-07T10:14:11;1.50;;;1.10;;
10416;SDS011;62605;49.432;8.680;2024-01-07T10:16:38;1.50;;;1.33;;
10416;SDS011;62605;49.432;8.680;2024-01-07T10:19:06;3.07;;;1.57;;
10416;SDS011;62605;49.432;8.680;2024-01-07T10:21:34;1.70;;;1.40;;
10416;SDS011;62605;49.432;8.680;2024-01-07T10:24:08;0.90;;;0.90;;
10416;SDS011;62605;49.432;8.680;2024-01-07T10:26:37;2.00;;;0.93;;
10416;SDS011;62605;49.432;8.680;2024-01-07T10:29:04;1.30;;;1.13;;
10416;SDS011;62605;49.432;8.680;2024-01-07T10:31:32;1.67;;;1.23;;
10416;SDS011;62605;49.432;8.680;2024-01-07T10:33:59;1.27;;;0.90;;
10416;SDS011;62605;49.432;8.680;2024-01-07T10:36:26;0.90;;;0.90;;
10416;SDS011;62605;49.432;8.680;2024-01-07T10:38:57;1.17;;;1.00;;
10416;SDS011;62605;49.432;8.680;2024-01-07T10:41:29;2.83;;;1.07;;
10416;SDS011;62605;49.432;8.680;2024-01-07T10:43:59;1.20;;;1.10;;
10416;SDS011;62605;49.432;8.680;2024-01-07T10:46:27;2.00;;;1.43;;
10416;SDS011;62605;49.432;8.680;2024-01-07T10:48:59;1.00;;;0.93;;
10416;SDS011;62605;49.432;8.680;2024-01-07T10:51:27;1.70;;;1.40;;
10416;SDS011;62605;49.432;8.680;2024-01-07T10:53:55;0.70;;;0.70;;
10416;SDS011;62605;49.432;8.680;2024-01-07T10:56:23;1.27;;;1.17;;
10416;SDS011;62605;49.432;8.680;2024-01-07T10:58:53;1.70;;;1.10;;
10416;SDS011;62605;49.432;8.680;2024-01-07T11:01:21;1.33;;;0.90;;
10416;SDS011;62605;49.432;8.680;2024-01-07T11:03:51;1.17;;;0.97;;
10416;SDS011;62605;49.432;8.680;2024-01-07T11:10:04;1.67;;;1.20;;
10416;SDS011;62605;49.432;8.680;2024-01-07T11:12:36;1.20;;;1.00;;
10416;SDS011;62605;49.432;8.680;2024-01-07T11:15:06;1.33;;;1.17;;
10416;SDS011;62605;49.432;8.680;2024-01-07T11:17:40;1.43;;;1.10;;
10416;SDS011;62605;49.432;8.680;2024-01-07T11:20:12;1.83;;;1.20;;
10416;SDS011;62605;49.432;8.680;2024-01-07T11:22:44;1.77;;;1.10;;
10416;SDS011;62605;49.432;8.680;2024-01-07T11:25:30;1.80;;;1.30;;
10416;SDS011;62605;49.432;8.680;2024-01-07T11:28:00;5.30;;;1.97;;
10416;SDS011;62605;49.432;8.680;2024-01-07T11:30:29;4.40;;;2.63;;
10416;SDS011;62605;49.432;8.680;2024-01-07T11:33:06;2.33;;;1.97;;
10416;SDS011;62605;49.432;8.680;2024-01-07T11:35:56;5.90;;;2.30;;
10416;SDS011;62605;49.432;8.680;2024-01-07T11:38:26;2.70;;;2.00;;
10416;SDS011;62605;49.432;8.680;2024-01-07T11:40:54;3.63;;;2.43;;
10416;SDS011;62605;49.432;8.680;2024-01-07T11:43:22;3.00;;;1.97;;
10416;SDS011;62605;49.432;8.680;2024-01-07T11:45:50;2.50;;;1.63;;
10416;SDS011;62605;49.432;8.680;2024-01-07T11:48:20;3.77;;;2.30;;
10416;SDS011;62605;49.432;8.680;2024-01-07T11:50:47;3.47;;;2.20;;
10416;SDS011;62605;49.432;8.680;2024-01-07T11:53:14;2.93;;;1.77;;
10416;SDS011;62605;49.432;8.680;2024-01-07T11:55:42;3.07;;;2.60;;
10416;SDS011;62605;49.432;8.680;2024-01-07T11:58:10;3.17;;;2.50;;
10416;SDS011;62605;49.432;8.680;2024-01-07T12:00:38;2.73;;;2.03;;
10416;SDS011;62605;49.432;8.680;2024-01-07T12:03:06;4.67;;;2.50;;
10416;SDS011;62605;49.432;8.680;2024-01-07T12:05:33;3.97;;;2.10;;
10416;SDS011;62605;49.432;8.680;2024-01-07T12:08:00;2.37;;;2.10;;
10416;SDS011;62605;49.432;8.680;2024-01-07T12:10:28;2.63;;;2.07;;
10416;SDS011;62605;49.432;8.680;2024-01-07T12:12:57;5.77;;;2.73;;
10416;SDS011;62605;49.432;8.680;2024-01-07T12:15:24;4.13;;;2.70;;
10416;SDS011;62605;49.432;8.680;2024-01-07T12:17:55;3.00;;;2.20;;
10416;SDS011;62605;49.432;8.680;2024-01-07T12:20:25;3.63;;;2.50;;
10416;SDS011;62605;49.432;8.680;2024-01-07T12:22:55;6.83;;;2.63;;
10416;SDS011;62605;49.432;8.680;2024-01-07T12:25:24;3.73;;;1.77;;
10416;SDS011;62605;49.432;8.680;2024-01-07T12:27:52;6.20;;;2.43;;
10416;SDS011;62605;49.432;8.680;2024-01-07T12:30:20;6.73;;;2.97;;
10416;SDS011;62605;49.432;8.680;2024-01-07T12:32:47;4.17;;;2.63;;
10416;SDS011;62605;49.432;8.680;2024-01-07T12:35:17;3.10;;;2.60;;
10416;SDS011;62605;49.432;8.680;2024-01-07T12:37:47;3.97;;;2.33;;
10416;SDS011;62605;49.432;8.680;2024-01-07T12:40:14;3.50;;;2.40;;
10416;SDS011;62605;49.432;8.680;2024-01-07T12:42:42;3.60;;;2.67;;
10416;SDS011;62605;49.432;8.680;2024-01-07T12:45:11;2.77;;;2.43;;
10416;SDS011;62605;49.432;8.680;2024-01-07T12:47:40;2.97;;;2.10;;
10416;SDS011;62605;49.432;8.680;2024-01-07T12:50:07;4.40;;;2.10;;
10416;SDS011;62605;49.432;8.680;2024-01-07T12:52:36;3.37;;;2.60;;
10416;SDS011;62605;49.432;8.680;2024-01-07T12:55:06;5.97;;;2.90;;
10416;SDS011;62605;49.432;8.680;2024-01-07T12:57:34;4.10;;;2.53;;
10416;SDS011;62605;49.432;8.680;2024-01-07T13:00:02;5.10;;;2.90;;
10416;SDS011;62605;49.432;8.680;2024-01-07T13:02:32;4.83;;;2.70;;
10416;SDS011;62605;49.432;8.680;2024-01-07T13:05:02;5.70;;;2.80;;
10416;SDS011;62605;49.432;8.680;2024-01-07T13:07:30;3.77;;;2.27;;
10416;SDS011;62605;49.432;8.680;2024-01-07T13:09:58;8.50;;;2.90;;
10416;SDS011;62605;49.432;8.680;2024-01-07T13:12:27;4.13;;;3.07;;
10416;SDS011;62605;49.432;8.680;2024-01-07T13:14:55;4.10;;;2.40;;
10416;SDS011;62605;49.432;8.680;2024-01-07T13:17:24;3.10;;;2.33;;
10416;SDS011;62605;49.432;8.680;2024-01-07T13:19:51;4.67;;;2.73;;
10416;SDS011;62605;49.432;8.680;2024-01-07T13:22:19;2.97;;;1.90;;
10416;SDS011;62605;49.432;8.680;2024-01-07T13:24:46;4.57;;;2.33;;
10416;SDS011;62605;49.432;8.680;2024-01-07T13:27:14;4.93;;;3.00;;
10416;SDS011;62605;49.432;8.680;2024-01-07T13:29:44;4.73;;;2.90;;
10416;SDS011;62605;49.432;8.680;2024-01-07T13:32:12;3.70;;;2.20;;
10416;SDS011;62605;49.432;8.680;2024-01-07T13:34:42;5.37;;;3.20;;
10416;SDS011;62605;49.432;8.680;2024-01-07T13:37:09;2.70;;;2.37;;
10416;SDS011;62605;49.432;8.680;2024-01-07T13:39:37;3.27;;;2.80;;
10416;SDS011;62605;49.432;8.680;2024-01-07T13:42:04;3.87;;;2.10;;
10416;SDS011;62605;49.432;8.680;2024-01-07T13:44:32;5.50;;;2.73;;
10416;SDS011;62605;49.432;8.680;2024-01-07T13:47:01;3.93;;;2.27;;
10416;SDS011;62605;49.432;8.680;2024-01-07T13:49:30;3.00;;;2.33;;
10416;SDS011;62605;49.432;8.680;2024-01-07T13:51:57;2.20;;;2.00;;
10416;SDS011;62605;49.432;8.680;2024-01-07T13:54:24;5.17;;;2.47;;
10416;SDS011;62605;49.432;8.680;2024-01-07T13:56:52;4.10;;;2.40;;
10416;SDS011;62605;49.432;8.680;2024-01-07T13:59:19;5.30;;;2.50;;
10416;SDS011;62605;49.432;8.680;2024-01-07T14:01:48;5.67;;;2.40;;
10416;SDS011;62605;49.432;8.680;2024-01-07T14:04:17;3.97;;;2.00;;
10416;SDS011;62605;49.432;8.680;2024-01-07T14:06:44;3.63;;;2.33;;
10416;SDS011;62605;49.432;8.680;2024-01-07T14:09:12;7.60;;;2.37;;
10416;SDS011;62605;49.432;8.680;2024-01-07T14:11:39;1.90;;;1.73;;
10416;SDS011;62605;49.432;8.680;2024-01-07T14:14:06;4.77;;;2.70;;
10416;SDS011;62605;49.432;8.680;2024-01-07T14:16:33;5.53;;;2.73;;
10416;SDS011;62605;49.432;8.680;2024-01-07T14:19:01;6.43;;;3.50;;
10416;SDS011;62605;49.432;8.680;2024-01-07T14:21:31;4.50;;;2.30;;
10416;SDS011;62605;49.432;8.680;2024-01-07T14:23:58;2.67;;;1.73;;
10416;SDS011;62605;49.432;8.680;2024-01-07T14:26:25;4.07;;;2.50;;
10416;SDS011;62605;49.432;8.680;2024-01-07T14:28:52;2.80;;;1.80;;
10416;SDS011;62605;49.432;8.680;2024-01-07T14:31:20;8.23;;;2.47;;
10416;SDS011;62605;49.432;8.680;2024-01-07T14:33:47;4.10;;;2.90;;
10416;SDS011;62605;49.432;8.680;2024-01-07T14:36:15;3.77;;;2.27;;
10416;SDS011;62605;49.432;8.680;2024-01-07T14:38:44;4.40;;;2.70;;
10416;SDS011;62605;49.432;8.680;2024-01-07T14:41:12;4.13;;;3.23;;
10416;SDS011;62605;49.432;8.680;2024-01-07T14:43:40;4.13;;;1.97;;
10416;SDS011;62605;49.432;8.680;2024-01-07T14:46:07;3.27;;;2.13;;
10416;SDS011;62605;49.432;8.680;2024-01-07T14:48:35;4.47;;;2.50;;
10416;SDS011;62605;49.432;8.680;2024-01-07T14:51:02;4.90;;;2.43;;
10416;SDS011;62605;49.432;8.680;2024-01-07T14:53:30;3.70;;;2.50;;
10416;SDS011;62605;49.432;8.680;2024-01-07T14:55:59;3.47;;;2.07;;
10416;SDS011;62605;49.432;8.680;2024-01-07T14:58:26;4.20;;;2.30;;
10416;SDS011;62605;49.432;8.680;2024-01-07T15:00:54;5.13;;;2.63;;